Weather observations for the past three days for
Sanford, Sanford-Lee County Regional Airport
Metric (Imperial)
Date Time (edt) Wind (kph) Vis. (km) Weather Sky Cond. Temperature (ºC) Relative Humidity Wind Chill (°C) Heat Index (°C) Pressure Precipitation (cm)
Air Dwpt 6 hour altimeter (cm) sea level (mb) 1 hr 3 hr 6 hr
Max. Min.
05 20:35 S 15 16.09 Fair CLR 22.2 10.1 46% 76.1 0.0
05 20:15 S 9 16.09 Fair CLR 22.6 9 42% 76.1 0.0
05 19:55 S 13 16.09 Fair CLR 23.5 9.1 27.6 23.5 40% 76.07 0.0
05 19:35 S 11 16.09 Fair CLR 24.1 9.4 39% 25 76.07 0.0
05 19:15 S 17 G 28 16.09 Partly Cloudy SCT075 24.8 9.2 37% 26 76.05 0.0
05 18:55 S 15 16.09 Partly Cloudy SCT075 25.4 9.5 37% 26 76.07 0.0
05 18:35 S 26 G 31 16.09 Partly Cloudy SCT075 25.6 9.4 36% 26 76.07 0.0
05 18:15 S 22 16.09 Partly Cloudy SCT075 26.3 9.2 34% 26 76.1 0.0
05 17:55 S 17 G 30 16.09 Partly Cloudy SCT075 26.6 9 33% 26 76.1 0.0
05 17:35 S 17 G 35 16.09 Partly Cloudy SCT075 26.9 9.1 33% 26 76.1 0.0
05 17:15 S 20 G 28 16.09 Fair CLR 26.8 8.8 32% 26 76.1 0.0
05 16:55 S 22 G 35 16.09 Fair CLR 26.8 8.9 32% 26 76.1 0.0
05 16:35 S 19 G 35 16.09 Fair CLR 27.1 9.1 32% 27 76.1 0.0
05 16:15 S 17 G 28 16.09 Fair CLR 27.2 9.2 32% 27 76.12 0.0
05 15:55 S 17 16.09 Fair CLR 26.7 8.7 32% 26 76.12 0.0
05 15:35 S 17 G 30 16.09 Partly Cloudy SCT070 26.9 8.4 31% 26 76.17 0.0
05 15:15 SW 17 G 33 16.09 Partly Cloudy SCT070 27 8.7 32% 26 76.2 0.0
05 14:55 SW 19 G 30 16.09 Partly Cloudy SCT070 26.6 8.6 32% 26 76.23 0.0
05 14:35 SW 15 G 30 16.09 Partly Cloudy SCT070 26.7 9 33% 26 76.23 0.0
05 14:15 SW 19 G 26 16.09 Partly Cloudy SCT070 26.9 9.8 34% 27 76.23 0.0
05 13:55 SW 20 G 28 16.09 Partly Cloudy SCT060 26.8 9.8 26.8 13.1 34% 26 76.23 0.0
05 13:35 SW 17 G 30 16.09 Partly Cloudy SCT060 26.1 9.6 35% 26 76.25 0.0
05 13:15 S 20 G 30 16.09 Partly Cloudy SCT060 26 9 34% 26 76.28 0.0
05 12:55 S 17 G 30 16.09 Fair CLR 25.5 9.1 35% 26 76.28 0.0
05 12:35 S 17 G 26 16.09 Fair CLR 24.7 9.6 38% 26 76.3 0.0
05 12:15 S 13 16.09 Fair CLR 24.3 11.2 44% 25 76.3 0.0
05 11:55 S 15 16.09 Fair CLR 23.5 10.9 45% 76.33 0.0
05 11:35 S 11 16.09 Fair CLR 23.3 11.8 49% 76.33 0.0
05 11:15 SW 11 16.09 Fair CLR 22.8 11.7 50% 76.33 0.0
05 10:55 SW 13 16.09 Fair CLR 21.9 11.4 51% 76.35 0.0
05 10:35 SW 15 16.09 Fair CLR 21.3 11.4 53% 76.35 0.0
05 10:15 W 15 16.09 Fair CLR 20.5 11.1 55% 76.35 0.0
05 09:55 SW 11 16.09 Partly Cloudy SCT002 19.7 11.1 58% 76.35 0.0
05 09:35 SW 15 16.09 Fair CLR 19.4 11.1 59% 76.33 0.0
05 09:15 SW 11 16.09 Fair CLR 18.4 11 62% 76.33 0.0
05 08:55 SW 7 16.09 Fair CLR 17.3 10.5 65% 76.33 0.0
05 08:35 SW 7 16.09 Fair CLR 16.9 10.8 67% 76.35 0.0
05 08:15 S 6 16.09 Fair CLR 14.7 10.4 76% 76.35 0.0
05 07:55 Calm 16.09 Fair CLR 12.8 9.9 16.3 7.3 83% 76.35 0.0
05 07:35 Calm 16.09 Fair CLR 10.3 9.7 96% 76.33 0.0
05 07:15 Calm 16.09 Fair CLR 8.8 8.8 100% 76.3 0.0
05 06:55 Calm 16.09 Fair CLR 8.4 8.4 100% 76.3 0.0
05 06:35 Calm 8.05 Fog/Mist CLR 7.6 7.1 97% 76.28 0.0
05 06:15 Calm 16.09 Fair CLR 8.9 8.1 95% 76.25 0.0
05 05:55 Calm 16.09 Fair CLR 8.8 8.5 98% 76.25 0.0
05 05:35 Calm 16.09 Fair CLR 8.8 8.2 96% 76.23 0.0
05 05:15 Calm 16.09 Fair CLR 9.7 8 89% 76.23 0.0
05 04:55 Calm 16.09 Fair CLR 10.4 7.7 84% 76.23 0.0
05 04:35 Calm 16.09 Fair CLR 10.3 8 86% 76.23 0.0
05 04:15 Calm 16.09 Fair CLR 11.2 7.9 80% 76.23 0.0
05 03:55 Calm 16.09 Fair CLR 12.7 8.5 76% 76.2 0.0
05 03:35 Calm 16.09 Fair CLR 14.1 8 67% 76.2 0.0
05 03:15 SW 6 16.09 Fair CLR 14.2 8.1 67% 76.2 0.0
05 02:55 SW 7 16.09 Fair CLR 15.1 8.3 64% 76.2 0.0
05 02:35 SW 9 16.09 Fair CLR 15.5 8.5 63% 76.17 0.0
05 02:15 SW 9 16.09 Fair CLR 15.7 8.5 62% 76.17 0.0
05 01:55 SW 9 16.09 Fair CLR 16.2 8.7 22.3 16.2 61% 76.2 0.0
05 01:35 SW 11 16.09 Fair CLR 16.3 8.8 61% 76.2 0.0
05 01:15 SW 13 16.09 Fair CLR 16.7 8.8 60% 76.2 0.0
05 00:55 SW 13 16.09 Fair CLR 16.9 9 60% 76.23 0.0
05 00:35 SW 17 16.09 Fair CLR 17 9 60% 76.2 0.0
05 00:15 SW 15 16.09 Fair CLR 17.2 9 59% 76.2 0.0
04 23:55 SW 15 16.09 Fair CLR 17.5 9 58% 76.23 0.0
04 23:35 S 15 16.09 Fair CLR 17.8 9 57% 76.2 0.0
04 23:15 S 15 G 30 16.09 Fair CLR 18.3 9.1 55% 76.2 0.0
04 22:55 S 13 16.09 Fair CLR 18.6 9.2 55% 76.2 0.0
04 22:35 S 17 G 31 16.09 Fair CLR 19 9 52% 76.2 0.0
04 22:15 S 15 16.09 Fair CLR 19.2 8.3 49% 76.17 0.0
04 21:55 S 11 16.09 Fair CLR 18.3 6.3 46% 76.17 0.0
04 21:35 S 9 16.09 Fair CLR 17.8 6.1 46% 76.15 0.0
04 21:15 S 7 16.09 Fair CLR 18.6 6 44% 76.12 0.0
04 20:55 S 7 16.09 Fair CLR 19.6 5.7 40% 76.12 0.0
04 20:35 S 9 16.09 Fair CLR 20.6 5.5 37% 76.1 0.0
04 20:15 S 9 16.09 Fair CLR 21 5.4 36% 76.1 0.0
04 19:55 S 11 16.09 Fair CLR 22.3 5.2 26.6 22.3 33% 76.07 0.0
04 19:35 S 11 16.09 Fair CLR 23.5 4.6 29% 76.05 0.0
04 19:15 S 9 16.09 Fair CLR 24.6 3.7 26% 25 76.05 0.0
04 18:55 SW 11 16.09 Fair CLR 25.5 3 23% 25 76.02 0.0
04 18:35 S 17 16.09 Fair CLR 25.9 3.1 23% 26 76.02 0.0
04 18:15 S 13 16.09 Fair CLR 26.1 3 22% 26 76.02 0.0
04 17:55 SW 17 16.09 Fair CLR 26.5 3 22% 26 76.02 0.0
04 17:35 S 15 16.09 Fair CLR 26.5 3.4 23% 26 76.02 0.0
04 17:15 SW 17 16.09 Fair CLR 26.4 3.6 23% 26 76.05 0.0
04 16:55 S 7 16.09 Fair CLR 26.2 2.7 22% 26 76.05 0.0
04 16:35 SW 13 G 26 16.09 Fair CLR 26.2 3.2 23% 26 76.07 0.0
04 16:15 SW 17 16.09 Fair CLR 25.9 3.4 23% 26 76.1 0.0
04 15:55 SW 15 16.09 Fair CLR 26.2 3.6 23% 26 76.1 0.0
04 15:35 S 17 G 30 16.09 Fair CLR 26.1 3.6 23% 26 76.1 0.0
04 15:15 S 13 16.09 Fair CLR 25.6 3.6 24% 25 76.1 0.0
04 14:55 SW 19 16.09 Fair CLR 25.5 3.9 25% 25 76.15 0.0
04 14:35 SW 13 16.09 Fair CLR 25.2 4 25% 25 76.15 0.0
04 14:15 S 17 16.09 Fair CLR 24.9 3.5 25% 25 76.17 0.0
04 13:55 W 17 16.09 Fair CLR 24.6 3.5 24.8 7 25% 25 76.17 0.0
04 13:35 SW 15 16.09 Fair CLR 23.8 3.2 26% 76.2 0.0
04 13:15 W 9 G 26 16.09 Fair CLR 23.4 3.6 28% 76.23 0.0
04 12:55 W 17 G 28 16.09 Fair CLR 23.1 4.9 31% 76.25 0.0
04 12:35 W 19 G 31 16.09 Fair CLR 22.4 5.1 33% 76.28 0.0
04 12:15 W 13 16.09 Partly Cloudy SCT001 21.7 6.2 37% 76.3 0.0
04 11:55 W 13 16.09 Fair CLR 21.3 6.4 38% 76.3 0.0
04 11:35 W 9 16.09 Fair CLR 20.5 6.5 40% 76.3 0.0
04 11:15 SW 7 16.09 Fair CLR 20 6.7 42% 76.3 0.0
04 10:55 SW 7 16.09 Partly Cloudy SCT001 18.6 6.2 44% 76.3 0.0
04 10:35 SW 7 16.09 Partly Cloudy SCT001 17.3 7.6 53% 76.33 0.0
04 10:15 SW 13 16.09 Fair CLR 16.6 7.6 56% 76.33 0.0
04 09:55 SW 9 16.09 Fair CLR 15.5 7.7 60% 76.35 0.0
04 09:35 W 6 16.09 Fair CLR 14.7 7.9 64% 76.35 0.0
04 09:15 SW 7 16.09 Fair CLR 13.6 8.3 71% 76.35 0.0
04 08:55 Calm 16.09 Fair CLR 12.2 8.3 77% 76.35 0.0
04 08:35 Calm 16.09 Fair CLR 10.5 8 85% 76.35 0.0
04 08:15 Calm 16.09 Fair CLR 8.4 6.9 90% 76.35 0.0
04 07:55 Calm 16.09 Fair CLR 6.8 6 6.8 2.1 95% 76.35 0.0
04 07:35 Calm 16.09 Fair CLR 5 4.8 99% 76.35 0.0
04 07:15 Calm 16.09 Fair CLR 3.5 3.5 100% 76.35 0.0
04 06:55 Calm 16.09 Fair CLR 3 3 100% 76.35 0.0
04 06:35 Calm 16.09 Fair CLR 2.7 2.7 100% 76.35 0.0
04 06:15 Calm 16.09 Fair CLR 2.6 2.6 100% 76.35 0.0
04 05:55 Calm 16.09 Fair CLR 2.7 2.7 100% 76.35 0.0
04 05:35 Calm 16.09 Fair CLR 2.9 2.9 100% 76.35 0.0
04 05:15 Calm 16.09 Fair CLR 2.9 2.7 99% 76.33 0.0
04 04:55 Calm 16.09 Fair CLR 3 3 100% 76.33 0.0
04 04:35 Calm 16.09 Fair CLR 2.8 2.8 100% 76.35 0.0
04 04:15 Calm 16.09 Fair CLR 2.7 2.7 100% 76.35 0.0
04 03:55 Calm 16.09 Fair CLR 3 3 100% 76.33 0.0
04 03:35 Calm 16.09 Fair CLR 2.7 2.7 100% 76.33 0.0
04 03:15 Calm 16.09 Fair CLR 2.6 2.6 100% 76.33 0.0
04 02:55 Calm 16.09 Fair CLR 2.9 2.8 99% 76.35 0.0
04 02:15 Calm 16.09 Fair CLR 3.5 3.5 100% 76.35 0.0
04 01:55 Calm 16.09 Fair CLR 2.6 2.6 14.1 2.6 100% 76.33 0.0
04 01:35 Calm 16.09 Fair CLR 3.5 3.5 100% 76.35 0.0
04 01:15 Calm 16.09 Fair CLR 3.7 3.7 100% 76.35 0.0
04 00:55 Calm 16.09 Fair CLR 3.7 3.7 100% 76.35 0.0
04 00:35 Calm 16.09 Fair CLR 4.5 4.4 99% 76.35 0.0
04 00:15 Calm 16.09 Fair CLR 3.7 3.7 100% 76.35 0.0
03 23:55 Calm 16.09 Fair CLR 4.2 3.3 94% 76.38 0.0
03 23:35 Calm 16.09 Fair CLR 5.5 4.4 93% 76.35 0.0
03 23:15 Calm 16.09 Fair CLR 4.6 4.2 97% 76.35 0.0
03 22:55 Calm 16.09 Fair CLR 5 4.1 94% 76.35 0.0
03 22:35 Calm 16.09 Fair CLR 5.9 4.4 90% 76.35 0.0
03 22:15 Calm 16.09 Fair CLR 6.2 4.7 90% 76.35 0.0
03 21:55 Calm 16.09 Fair CLR 7 4 81% 76.33 0.0
03 21:35 Calm 16.09 Fair CLR 6.8 3.7 81% 76.33 0.0
03 21:15 Calm 16.09 Fair CLR 8.6 3.8 72% 76.3 0.0
03 20:55 Calm 16.09 Fair CLR 8.8 4.5 75% 76.3 0.0
03 20:35 Calm 16.09 Fair CLR 10 4 67% 76.28 0.0
03 20:15 Calm 16.09 Fair CLR 11.9 3.6 57% 76.25 0.0
03 19:55 Calm 16.09 Fair CLR 14 2.8 19.8 14 47% 76.25 0.0
03 19:35 NW 6 16.09 Fair CLR 18 -2.2 25% 76.25 0.0
03 19:15 Calm 16.09 Fair CLR 18.4 -2.9 23% 76.25 0.0
03 18:55 NW 7 16.09 Fair CLR 18.7 -3.4 22% 76.25 0.0
03 18:35 NW 11 16.09 Fair CLR 18.9 -3.7 21% 76.25 0.0
03 18:15 Calm 16.09 Fair CLR 18.7 -3.5 22% 76.25 0.0
03 17:55 W 9 16.09 Fair CLR 19 -3.2 22% 76.25 0.0
03 17:35 NW 17 16.09 Fair CLR 19.3 -2.9 22% 76.25 0.0
03 17:15 W 13 16.09 Fair CLR 19.4 -3.7 21% 76.25 0.0
03 16:55 NW 13 16.09 Fair CLR 19.1 -4.1 21% 76.25 0.0
03 16:35 W 15 16.09 Fair CLR 19.2 -4.3 20% 76.28 0.0
03 16:15 NW 22 G 30 16.09 Fair CLR 18.9 -3.6 22% 76.28 0.0
03 15:55 SW 7 G 17 16.09 Fair CLR 18.4 -4 22% 76.33 0.0
03 15:35 W 15 16.09 Fair CLR 18.6 -4.3 21% 76.33 0.0
03 15:15 W 6 G 28 16.09 Fair CLR 18.1 -5 20% 76.35 0.0
03 14:55 W 9 16.09 Fair CLR 18.4 -4.1 21% 76.35 0.0
03 14:35 W 13 G 28 16.09 Fair CLR 17.8 -3 24% 76.38 0.0
03 14:15 W 19 16.09 Fair CLR 17.2 -2.7 26% 76.38 0.0
03 13:55 NW 9 G 26 16.09 Fair CLR 17 -2 17.3 7.2 27% 76.43 0.0
03 13:35 N 11 16.09 Fair CLR 16.6 -2 28% 76.43 0.0
03 13:15 W 17 16.09 Fair CLR 16.7 -2.1 28% 76.45 0.0
03 12:55 W 17 16.09 Fair CLR 16.2 -1.5 30% 76.45 0.0
03 12:35 NW 17 16.09 Fair CLR 15.4 -1.6 31% 76.5 0.0
03 12:15 NW 20 16.09 Fair CLR 14.9 -1.7 32% 76.5 0.0
03 11:55 NW 9 16.09 Fair CLR 14.5 -1.3 34% 76.53 0.0
03 11:35 NW 17 16.09 Fair CLR 14.1 -1.1 35% 76.53 0.0
03 11:15 NW 19 G 30 16.09 Fair CLR 14 -0.7 37% 76.53 0.0
03 10:55 NW 22 G 30 16.09 Fair CLR 13.6 -0.6 38% 76.53 0.0
03 10:35 NW 19 16.09 Fair CLR 13.1 -0.7 39% 76.53 0.0
03 10:15 N 15 16.09 Fair CLR 12.9 -0.1 41% 76.53 0.0
03 09:55 N 15 16.09 Fair CLR 12.4 0.2 43% 76.53 0.0
03 09:35 NW 15 16.09 Fair CLR 11.7 0.3 46% 76.53 0.0
03 09:15 NW 17 16.09 Fair CLR 11 0.7 49% 76.53 0.0
03 08:55 NW 9 16.09 Fair CLR 9.7 1.9 59% 9 76.53 0.0
03 08:35 NW 11 16.09 Fair CLR 8.8 1.4 60% 7 76.5 0.0
03 08:15 NW 9 16.09 Fair CLR 8.3 1.8 64% 7 76.5 0.0
03 07:55 NW 6 16.09 Fair CLR 7 2 7 0.9 71% 76.5 0.0
03 07:35 W 6 16.09 Fair CLR 5.3 2.9 85% 76.5 0.0
03 07:15 Calm 16.09 Fair CLR 2 2 100% 76.48 0.0
03 06:55 Calm 16.09 Fair CLR 1 1 100% 76.43 0.0
03 06:35 Calm 16.09 Fair CLR 2.4 0 84% 76.4 0.0
03 06:15 NW 7 16.09 Fair CLR 5.6 0.5 70% 4 76.38 0.0
03 05:55 NW 9 16.09 Fair CLR 5.5 0.7 72% 4 76.35 0.0
03 05:35 NW 6 16.09 Fair CLR 1.9 1.9 100% 76.35 0.0
03 05:15 Calm 8.05 Fog/Mist CLR 0.9 0.9 100% 76.35 0.0
03 04:55 Calm 11.27 Fair CLR 0.9 0.9 100% 76.33 0.0
03 04:35 Calm 8.05 Fog/Mist CLR 1.8 1.8 100% 76.3 0.0
03 04:15 Calm 16.09 Fair CLR 4.5 1.4 81% 76.3 0.0
03 03:55 NW 6 16.09 Fair CLR 5.8 1.5 74% 76.28 0.0
03 03:35 NW 7 16.09 Fair CLR 4.6 2.3 85% 3 76.25 0.0
03 03:15 Calm 16.09 Fair CLR 2.5 2.5 100% 76.23 0.0
03 02:55 Calm 16.09 Fair CLR 3.1 3.1 100% 76.23 0.0
03 02:35 Calm 4.83 Fog/Mist CLR 2.9 2.9 100% 76.2 0.0
03 02:15 Calm 16.09 Fair CLR 4.7 4.7 100% 76.2 0.0
03 01:55 Calm 6.44 Fog/Mist CLR 2.7 2.7 12 2.4 100% 76.2 0.0
03 01:35 Calm 1.21 Fog/Mist VV005 3.6 3.6 100% 76.2 0.0
03 01:15 Calm 8.05 Fog/Mist CLR 5.1 5.1 100% 76.17 0.0
03 00:55 Calm 2.41 Fog/Mist VV007 4.9 4.8 99% 76.2 0.0
03 00:35 Calm 1.21 Fog/Mist VV005 4.5 4.5 100% 76.17 0.0
03 00:15 Calm 1.61 Fog/Mist BKN002 5.8 5.8 100% 76.17 0.0
02 23:55 Calm 1.21 Fog/Mist BKN002 4.5 4.5 100% 76.17 0.0
02 23:35 Calm 1.61 Fog/Mist BKN002 6.4 6.4 100% 76.15 0.0
02 23:15 Calm 0.80 Fog OVC002 6.6 6.6 100% 76.15 0.0
02 22:55 Calm 1.21 Fog/Mist OVC002 6 6 100% 76.12 0.0
02 22:35 Calm 2.01 Fog/Mist VV007 7.3 7.3 100% 76.12 0.0
02 22:15 Calm 0.80 Fog BKN002 7.3 7.3 100% 76.1 0.0
02 21:55 Calm 4.02 Fog/Mist SCT002 7.5 7.5 100% 76.1 0.0
02 21:35 Calm 0.40 Fog BKN002 7.7 7.7 100% 76.1 0.0
02 21:15 Calm 0.80 Fog VV005 8 8 100% 76.07 0.0
02 20:55 Calm 2.01 Fog/Mist VV007 8.9 8.9 100% 76.05 0.0
Date Time (edt) Wind (kph) Vis. (km) Weather Sky Cond. Air Dwpt Max. Min. Relative Humidity Wind Chill (°C) Heat Index (°C) altimeter (cm) sea level (mb) 1 hr 3 hr 6 hr
6 hour
Temperature (ºC) Pressure Precipitation (cm)